createdAt,value
2022-07-29T00:00:14.065Z,0.00
2022-07-29T00:01:19.283Z,0.00
2022-07-29T00:02:14.023Z,0.00
2022-07-29T00:03:14.801Z,0.00
2022-07-29T00:04:14.484Z,0.00
2022-07-29T00:05:13.990Z,0.00
2022-07-29T00:06:13.977Z,0.00
2022-07-29T00:07:14.032Z,0.00
2022-07-29T00:08:13.932Z,0.00
2022-07-29T00:09:13.915Z,0.00
2022-07-29T00:10:13.914Z,0.00
2022-07-29T00:11:13.956Z,0.00
2022-07-29T00:12:13.872Z,0.00
2022-07-29T00:13:13.847Z,0.00
2022-07-29T00:14:14.147Z,0.00
2022-07-29T00:15:13.862Z,0.00
2022-07-29T00:16:13.850Z,0.00
2022-07-29T00:17:13.861Z,0.00
2022-07-29T00:18:13.758Z,0.00
2022-07-29T00:19:13.773Z,0.00
2022-07-29T00:20:13.737Z,0.00
2022-07-29T00:21:13.708Z,0.00
2022-07-29T00:22:13.698Z,0.00
2022-07-29T00:23:13.831Z,0.00
2022-07-29T00:24:14.004Z,0.00
2022-07-29T00:25:13.710Z,0.00
2022-07-29T00:26:13.627Z,0.00
2022-07-29T00:27:13.615Z,0.00
2022-07-29T00:28:13.640Z,0.00
2022-07-29T00:30:13.570Z,0.00
2022-07-29T00:31:13.634Z,0.00
2022-07-29T00:32:13.567Z,0.00
2022-07-29T00:33:13.516Z,0.00
2022-07-29T00:34:13.741Z,0.00
2022-07-29T00:35:13.477Z,0.00
2022-07-29T00:36:13.488Z,0.00
2022-07-29T00:37:13.440Z,0.00
2022-07-29T00:38:13.435Z,0.00
2022-07-29T00:39:13.409Z,0.00
2022-07-29T00:40:13.422Z,0.00
2022-07-29T00:41:13.410Z,0.00
2022-07-29T00:42:13.376Z,0.00
2022-07-29T00:43:13.355Z,0.00
2022-07-29T00:44:13.714Z,0.00
2022-07-29T00:45:13.370Z,0.00
2022-07-29T00:46:13.322Z,0.00
2022-07-29T00:47:13.277Z,0.00
2022-07-29T00:48:13.261Z,0.00
2022-07-29T00:49:13.307Z,0.00
2022-07-29T00:50:13.219Z,0.00
2022-07-29T00:51:13.203Z,0.00
2022-07-29T00:52:13.190Z,0.00
2022-07-29T00:53:13.184Z,0.00
2022-07-29T00:54:13.604Z,0.00
2022-07-29T00:55:13.742Z,0.00
2022-07-29T00:56:13.116Z,0.00
2022-07-29T00:57:13.281Z,0.00
2022-07-29T00:58:13.118Z,0.00
2022-07-29T00:59:13.752Z,0.00
2022-07-29T01:00:13.059Z,0.00
2022-07-29T01:01:13.093Z,0.00
2022-07-29T01:02:13.111Z,0.00
2022-07-29T01:03:13.007Z,0.00
2022-07-29T01:04:13.418Z,0.00
2022-07-29T01:05:12.968Z,0.00
2022-07-29T01:06:12.979Z,0.00
2022-07-29T01:07:12.974Z,0.00
2022-07-29T01:08:12.926Z,0.00
2022-07-29T01:09:12.891Z,0.00
2022-07-29T01:10:12.890Z,0.00
2022-07-29T01:11:12.908Z,0.00
2022-07-29T01:12:13.757Z,0.00
2022-07-29T01:13:12.841Z,0.00
2022-07-29T01:14:13.021Z,0.00
2022-07-29T01:15:12.815Z,0.00
2022-07-29T01:16:12.817Z,0.00
2022-07-29T01:17:12.762Z,0.00
2022-07-29T01:18:12.745Z,0.00
2022-07-29T01:19:12.767Z,0.00
2022-07-29T01:20:12.709Z,0.00
2022-07-29T01:21:12.761Z,0.00
2022-07-29T01:22:12.671Z,0.00
2022-07-29T01:23:12.662Z,0.00
2022-07-29T01:24:12.941Z,0.00
2022-07-29T01:25:13.288Z,4.00
2022-07-29T01:26:12.605Z,4.00
2022-07-29T01:27:12.598Z,4.00
2022-07-29T01:28:12.602Z,0.00
2022-07-29T01:29:12.561Z,0.00
2022-07-29T01:30:12.551Z,0.00
2022-07-29T01:31:15.609Z,4.00
2022-07-29T01:32:27.725Z,4.00
2022-07-29T01:33:12.484Z,4.00
2022-07-29T01:34:12.626Z,4.00
2022-07-29T01:35:12.450Z,4.00
2022-07-29T01:36:12.463Z,0.00
2022-07-29T01:37:12.451Z,4.00
2022-07-29T01:38:12.414Z,4.00
2022-07-29T01:39:12.383Z,4.00
2022-07-29T01:40:12.384Z,4.00
2022-07-29T01:41:12.389Z,4.00
2022-07-29T01:42:13.299Z,4.00
2022-07-29T01:43:12.317Z,4.00
2022-07-29T01:44:12.507Z,4.00
2022-07-29T01:45:12.306Z,4.00
2022-07-29T01:46:12.305Z,4.00
2022-07-29T01:47:12.256Z,4.00
2022-07-29T01:48:12.229Z,8.00
2022-07-29T01:49:12.385Z,8.00
2022-07-29T01:50:12.227Z,4.00
2022-07-29T01:51:12.178Z,8.00
2022-07-29T01:52:12.158Z,8.00
2022-07-29T01:53:12.144Z,8.00
2022-07-29T01:54:12.292Z,8.00
2022-07-29T01:55:12.791Z,8.00
2022-07-29T01:56:12.118Z,12.00
2022-07-29T01:57:12.085Z,12.00
2022-07-29T01:58:12.096Z,8.00
2022-07-29T01:59:12.042Z,12.00
2022-07-29T02:00:12.038Z,12.00
2022-07-29T02:01:12.033Z,12.00
2022-07-29T02:02:12.044Z,12.00
2022-07-29T02:03:12.012Z,16.00
2022-07-29T02:04:12.118Z,12.00
2022-07-29T02:05:12.015Z,16.00
2022-07-29T02:06:11.943Z,16.00
2022-07-29T02:07:11.941Z,20.00
2022-07-29T02:08:12.774Z,20.00
2022-07-29T02:09:11.867Z,20.00
2022-07-29T02:10:11.870Z,24.00
2022-07-29T02:11:11.863Z,24.00
2022-07-29T02:12:11.865Z,28.00
2022-07-29T02:13:11.817Z,28.00
2022-07-29T02:14:11.909Z,28.00
2022-07-29T02:15:11.793Z,28.00
2022-07-29T02:16:11.845Z,32.00
2022-07-29T02:17:11.744Z,36.00
2022-07-29T02:18:11.717Z,36.00
2022-07-29T02:19:11.717Z,40.00
2022-07-29T02:20:11.705Z,40.00
2022-07-29T02:21:15.093Z,36.00
2022-07-29T02:22:11.650Z,40.00
2022-07-29T02:23:11.661Z,44.00
2022-07-29T02:24:11.643Z,44.00
2022-07-29T02:25:14.075Z,44.00
2022-07-29T02:26:11.599Z,44.00
2022-07-29T02:27:11.573Z,44.00
2022-07-29T02:28:11.586Z,48.00
2022-07-29T02:29:11.564Z,48.00
2022-07-29T02:30:11.526Z,48.00
2022-07-29T02:31:11.519Z,48.00
2022-07-29T02:32:11.504Z,48.00
2022-07-29T02:33:11.459Z,52.00
2022-07-29T02:34:11.447Z,52.00
2022-07-29T02:35:11.421Z,52.00
2022-07-29T02:36:11.425Z,56.00
2022-07-29T02:37:11.445Z,56.00
2022-07-29T02:38:11.447Z,56.00
2022-07-29T02:39:11.362Z,56.00
2022-07-29T02:40:11.341Z,60.00
2022-07-29T02:41:11.344Z,60.00
2022-07-29T02:42:11.311Z,60.00
2022-07-29T02:43:11.287Z,60.00
2022-07-29T02:44:11.275Z,56.00
2022-07-29T02:45:11.268Z,60.00
2022-07-29T02:46:12.698Z,60.00
2022-07-29T02:47:11.218Z,64.00
2022-07-29T02:48:11.226Z,64.00
2022-07-29T02:49:11.290Z,68.00
2022-07-29T02:50:11.185Z,76.00
2022-07-29T02:51:12.757Z,84.00
2022-07-29T02:52:11.131Z,92.00
2022-07-29T02:53:11.126Z,104.00
2022-07-29T02:54:11.128Z,120.00
2022-07-29T02:55:11.847Z,132.00
2022-07-29T02:56:11.066Z,148.00
2022-07-29T02:57:11.056Z,156.00
2022-07-29T02:58:11.060Z,168.00
2022-07-29T02:59:11.070Z,176.00
2022-07-29T03:00:10.993Z,176.00
2022-07-29T03:01:11.037Z,180.00
2022-07-29T03:02:11.119Z,180.00
2022-07-29T03:03:10.967Z,180.00
2022-07-29T03:04:11.068Z,184.00
2022-07-29T03:05:10.996Z,184.00
2022-07-29T03:06:28.294Z,184.00
2022-07-29T03:07:10.913Z,184.00
2022-07-29T03:08:11.824Z,184.00
2022-07-29T03:09:13.593Z,188.00
2022-07-29T03:10:13.450Z,188.00
2022-07-29T03:11:10.845Z,184.00
2022-07-29T03:12:10.797Z,180.00
2022-07-29T03:13:10.794Z,180.00
2022-07-29T03:14:10.761Z,184.00
2022-07-29T03:15:10.770Z,188.00
2022-07-29T03:16:10.773Z,192.00
2022-07-29T03:17:10.764Z,192.00
2022-07-29T03:18:10.685Z,196.00
2022-07-29T03:19:10.696Z,196.00
2022-07-29T03:20:10.684Z,200.00
2022-07-29T03:21:10.654Z,204.00
2022-07-29T03:22:10.627Z,208.00
2022-07-29T03:23:10.620Z,212.00
2022-07-29T03:24:12.598Z,216.00
2022-07-29T03:25:10.611Z,220.00
2022-07-29T03:26:10.554Z,224.00
2022-07-29T03:27:10.544Z,228.00
2022-07-29T03:28:10.542Z,228.00
2022-07-29T03:29:10.501Z,236.00
2022-07-29T03:30:10.497Z,240.00
2022-07-29T03:31:10.538Z,244.00
2022-07-29T03:32:10.459Z,244.00
2022-07-29T03:33:13.381Z,252.00
2022-07-29T03:34:10.436Z,260.00
2022-07-29T03:35:10.401Z,260.00
2022-07-29T03:36:10.397Z,268.00
2022-07-29T03:37:10.379Z,268.00
2022-07-29T03:38:10.354Z,280.00
2022-07-29T03:39:10.332Z,284.00
2022-07-29T03:40:10.323Z,292.00
2022-07-29T03:41:10.325Z,300.00
2022-07-29T03:42:10.292Z,304.00
2022-07-29T03:43:10.279Z,308.00
2022-07-29T03:44:10.252Z,304.00
2022-07-29T03:45:10.244Z,296.00
2022-07-29T03:46:10.306Z,288.00
2022-07-29T03:47:10.824Z,284.00
2022-07-29T03:48:10.180Z,284.00
2022-07-29T03:49:10.250Z,288.00
2022-07-29T03:50:10.796Z,284.00
2022-07-29T03:51:10.142Z,296.00
2022-07-29T03:52:10.117Z,284.00
2022-07-29T03:53:10.101Z,296.00
2022-07-29T03:54:10.450Z,304.00
2022-07-29T03:55:10.086Z,312.00
2022-07-29T03:56:10.060Z,320.00
2022-07-29T03:57:10.035Z,328.00
2022-07-29T03:58:10.045Z,336.00
2022-07-29T03:59:10.043Z,336.00
2022-07-29T04:00:10.863Z,344.00
2022-07-29T04:01:09.970Z,352.00
2022-07-29T04:02:10.020Z,352.00
2022-07-29T04:03:10.674Z,356.00
2022-07-29T04:04:09.918Z,360.00
2022-07-29T04:05:09.900Z,360.00
2022-07-29T04:06:09.885Z,364.00
2022-07-29T04:07:09.890Z,360.00
2022-07-29T04:08:10.826Z,364.00
2022-07-29T04:09:10.067Z,368.00
2022-07-29T04:10:09.811Z,368.00
2022-07-29T04:11:09.815Z,376.00
2022-07-29T04:12:09.815Z,380.00
2022-07-29T04:13:09.802Z,392.00
2022-07-29T04:14:09.744Z,404.00
2022-07-29T04:15:09.740Z,412.00
2022-07-29T04:16:09.895Z,420.00
2022-07-29T04:17:09.698Z,444.00
2022-07-29T04:18:09.678Z,504.00
2022-07-29T04:19:09.663Z,472.00
2022-07-29T04:20:09.875Z,480.00
2022-07-29T04:21:09.670Z,488.00
2022-07-29T04:22:12.350Z,488.00
2022-07-29T04:23:09.600Z,484.00
2022-07-29T04:24:09.579Z,480.00
2022-07-29T04:25:09.593Z,484.00
2022-07-29T04:26:09.557Z,480.00
2022-07-29T04:27:09.534Z,480.00
2022-07-29T04:28:09.520Z,476.00
2022-07-29T04:29:09.531Z,472.00
2022-07-29T04:30:09.519Z,496.00
2022-07-29T04:31:09.544Z,496.00
2022-07-29T04:32:09.452Z,500.00
2022-07-29T04:33:09.451Z,552.00
2022-07-29T04:34:09.442Z,536.00
2022-07-29T04:35:10.375Z,516.00
2022-07-29T04:36:28.701Z,520.00
2022-07-29T04:37:09.377Z,652.00
2022-07-29T04:38:17.136Z,840.00
2022-07-29T04:39:09.337Z,864.00
2022-07-29T04:40:09.316Z,712.00
2022-07-29T04:41:09.306Z,760.00
2022-07-29T04:42:09.309Z,764.00
2022-07-29T04:43:09.297Z,888.00
2022-07-29T04:44:09.848Z,920.00
2022-07-29T04:45:09.236Z,852.00
2022-07-29T04:46:09.302Z,736.00
2022-07-29T04:47:09.262Z,620.00
2022-07-29T04:48:09.201Z,560.00
2022-07-29T04:49:09.208Z,540.00
2022-07-29T04:50:09.162Z,528.00
2022-07-29T04:51:09.167Z,536.00
2022-07-29T04:52:09.152Z,556.00
2022-07-29T04:53:09.889Z,584.00
2022-07-29T04:54:09.093Z,692.00
2022-07-29T04:55:09.089Z,776.00
2022-07-29T04:56:09.095Z,880.00
2022-07-29T04:57:09.087Z,656.00
2022-07-29T04:58:09.030Z,624.00
2022-07-29T04:59:09.017Z,592.00
2022-07-29T05:00:09.023Z,592.00
2022-07-29T05:01:09.090Z,564.00
2022-07-29T05:02:09.855Z,564.00
2022-07-29T05:03:09.061Z,524.00
2022-07-29T05:04:08.942Z,496.00
2022-07-29T05:05:08.950Z,480.00
2022-07-29T05:06:08.903Z,464.00
2022-07-29T05:07:08.888Z,476.00
2022-07-29T05:08:08.868Z,512.00
2022-07-29T05:09:08.874Z,592.00
2022-07-29T05:10:08.869Z,640.00
2022-07-29T05:11:11.727Z,628.00
2022-07-29T05:12:08.808Z,612.00
2022-07-29T05:13:08.798Z,612.00
2022-07-29T05:14:08.800Z,684.00
2022-07-29T05:15:08.817Z,692.00
2022-07-29T05:16:08.821Z,764.00
2022-07-29T05:17:08.727Z,928.00
2022-07-29T05:18:08.729Z,1244.00
2022-07-29T05:19:13.957Z,704.00
2022-07-29T05:20:08.715Z,664.00
2022-07-29T05:21:08.663Z,680.00
2022-07-29T05:22:08.655Z,652.00
2022-07-29T05:23:08.667Z,768.00
2022-07-29T05:24:08.625Z,920.00
2022-07-29T05:25:09.285Z,616.00
2022-07-29T05:26:08.584Z,564.00
2022-07-29T05:27:08.592Z,572.00
2022-07-29T05:28:08.566Z,612.00
2022-07-29T05:29:08.543Z,640.00
2022-07-29T05:30:08.529Z,652.00
2022-07-29T05:31:08.572Z,620.00
2022-07-29T05:32:08.538Z,668.00
2022-07-29T05:33:08.506Z,652.00
2022-07-29T05:34:08.480Z,596.00
2022-07-29T05:35:08.444Z,580.00
2022-07-29T05:36:08.630Z,564.00
2022-07-29T05:37:08.433Z,552.00
2022-07-29T05:38:08.400Z,536.00
2022-07-29T05:39:08.381Z,520.00
2022-07-29T05:40:08.367Z,520.00
2022-07-29T05:41:08.385Z,524.00
2022-07-29T05:42:08.373Z,528.00
2022-07-29T05:43:08.335Z,544.00
2022-07-29T05:44:08.302Z,556.00
2022-07-29T05:45:08.298Z,576.00
2022-07-29T05:46:08.341Z,596.00
2022-07-29T05:47:08.257Z,616.00
2022-07-29T05:48:08.239Z,644.00
2022-07-29T05:49:08.251Z,676.00
2022-07-29T05:50:08.239Z,704.00
2022-07-29T05:51:08.219Z,732.00
2022-07-29T05:52:08.877Z,760.00
2022-07-29T05:53:19.031Z,792.00
2022-07-29T05:54:08.157Z,812.00
2022-07-29T05:55:08.154Z,824.00
2022-07-29T05:56:08.149Z,844.00
2022-07-29T05:57:08.107Z,856.00
2022-07-29T05:58:08.087Z,828.00
2022-07-29T05:59:18.135Z,832.00
2022-07-29T06:00:08.076Z,916.00
2022-07-29T06:01:08.130Z,868.00
2022-07-29T06:02:08.039Z,872.00
2022-07-29T06:03:08.014Z,880.00
2022-07-29T06:04:08.028Z,988.00
2022-07-29T06:05:07.974Z,920.00
2022-07-29T06:06:08.007Z,884.00
2022-07-29T06:07:07.968Z,876.00
2022-07-29T06:08:07.948Z,864.00
2022-07-29T06:09:12.245Z,848.00
2022-07-29T06:10:08.896Z,844.00
2022-07-29T06:11:07.912Z,820.00
2022-07-29T06:12:07.891Z,812.00
2022-07-29T06:13:07.879Z,832.00
2022-07-29T06:14:07.829Z,844.00
2022-07-29T06:15:08.473Z,876.00
2022-07-29T06:16:07.849Z,944.00
2022-07-29T06:17:07.812Z,980.00
2022-07-29T06:18:07.797Z,1080.00
2022-07-29T06:19:07.761Z,1692.00
2022-07-29T06:20:07.740Z,1168.00
2022-07-29T06:21:07.824Z,1236.00
2022-07-29T06:22:07.744Z,1224.00
2022-07-29T06:23:07.731Z,1312.00
2022-07-29T06:24:07.691Z,2012.00
2022-07-29T06:25:07.670Z,1784.00
2022-07-29T06:26:07.653Z,1476.00
2022-07-29T06:27:07.653Z,1288.00
2022-07-29T06:28:07.709Z,1412.00
2022-07-29T06:29:08.405Z,1372.00
2022-07-29T06:30:07.592Z,1628.00
2022-07-29T06:31:07.612Z,1256.00
2022-07-29T06:32:07.589Z,1312.00
2022-07-29T06:33:07.588Z,1268.00
2022-07-29T06:34:07.534Z,1484.00
2022-07-29T06:35:37.795Z,2056.00
2022-07-29T06:36:07.502Z,2088.00
2022-07-29T06:37:07.569Z,1648.00
2022-07-29T06:38:25.079Z,2036.00
2022-07-29T06:39:07.455Z,2384.00
2022-07-29T06:40:07.448Z,2016.00
2022-07-29T06:41:07.450Z,2232.00
2022-07-29T06:42:07.445Z,1736.00
2022-07-29T06:43:07.449Z,1852.00
2022-07-29T06:44:07.381Z,1592.00
2022-07-29T06:45:09.383Z,1508.00
2022-07-29T06:46:07.432Z,1572.00
2022-07-29T06:47:07.374Z,2308.00
2022-07-29T06:48:07.909Z,1772.00
2022-07-29T06:49:07.341Z,1848.00
2022-07-29T06:50:07.777Z,1688.00
2022-07-29T06:51:07.315Z,1700.00
2022-07-29T06:52:07.319Z,1536.00
2022-07-29T06:53:07.946Z,1592.00
2022-07-29T06:54:07.245Z,1588.00
2022-07-29T06:55:07.240Z,1276.00
2022-07-29T06:56:07.251Z,1144.00
2022-07-29T06:57:07.241Z,1104.00
2022-07-29T06:58:07.946Z,1088.00
2022-07-29T06:59:07.186Z,1100.00
2022-07-29T07:00:07.168Z,1124.00
2022-07-29T07:01:07.217Z,1160.00
2022-07-29T07:02:07.188Z,1200.00
2022-07-29T07:03:07.171Z,1700.00
2022-07-29T07:04:07.101Z,1404.00
2022-07-29T07:05:07.102Z,1492.00
2022-07-29T07:06:09.789Z,1572.00
2022-07-29T07:07:07.061Z,1668.00
2022-07-29T07:08:07.046Z,1712.00
2022-07-29T07:09:07.045Z,1808.00
2022-07-29T07:10:07.033Z,2380.00
2022-07-29T07:11:07.026Z,1888.00
2022-07-29T07:12:07.030Z,2208.00
2022-07-29T07:13:06.979Z,1892.00
2022-07-29T07:14:06.958Z,1828.00
2022-07-29T07:15:06.961Z,2160.00
2022-07-29T07:16:06.965Z,1788.00
2022-07-29T07:17:07.024Z,1948.00
2022-07-29T07:18:06.905Z,2012.00
2022-07-29T07:19:06.893Z,1988.00
2022-07-29T07:20:06.895Z,1984.00
2022-07-29T07:21:06.897Z,2104.00
2022-07-29T07:22:06.890Z,2632.00
2022-07-29T07:23:06.833Z,2092.00
2022-07-29T07:24:06.829Z,1884.00
2022-07-29T07:25:06.824Z,1848.00
2022-07-29T07:26:06.823Z,2560.00
2022-07-29T07:27:06.831Z,2200.00
2022-07-29T07:28:06.767Z,2148.00
2022-07-29T07:29:06.752Z,2084.00
2022-07-29T07:30:06.762Z,2120.00
2022-07-29T07:31:06.752Z,2812.00
2022-07-29T07:32:06.763Z,2064.00
2022-07-29T07:33:06.704Z,1900.00
2022-07-29T07:34:06.688Z,1648.00
2022-07-29T07:35:06.690Z,1620.00
2022-07-29T07:36:06.687Z,1656.00
2022-07-29T07:37:06.667Z,1572.00
2022-07-29T07:38:06.693Z,1572.00
2022-07-29T07:39:06.625Z,1584.00
2022-07-29T07:40:06.617Z,1636.00
2022-07-29T07:41:06.623Z,1580.00
2022-07-29T07:42:06.602Z,1696.00
2022-07-29T07:43:07.449Z,1700.00
2022-07-29T07:44:06.556Z,1684.00
2022-07-29T07:45:16.428Z,1712.00
2022-07-29T07:46:06.619Z,1812.00
2022-07-29T07:47:12.246Z,1748.00
2022-07-29T07:48:07.484Z,1620.00
2022-07-29T07:49:06.582Z,1604.00
2022-07-29T07:50:06.488Z,1580.00
2022-07-29T07:51:06.506Z,1520.00
2022-07-29T07:52:06.492Z,1520.00
2022-07-29T07:53:06.994Z,1516.00
2022-07-29T07:54:06.431Z,1512.00
2022-07-29T07:55:06.415Z,1504.00
2022-07-29T07:56:11.525Z,1528.00
2022-07-29T07:57:06.421Z,1596.00
2022-07-29T07:58:06.430Z,1668.00
2022-07-29T07:59:06.368Z,2420.00
2022-07-29T08:00:06.363Z,1632.00
2022-07-29T08:01:06.455Z,1592.00
2022-07-29T08:02:06.441Z,1596.00
2022-07-29T08:03:17.183Z,1604.00
2022-07-29T08:04:06.294Z,1640.00
2022-07-29T08:05:06.279Z,1768.00
2022-07-29T08:06:06.285Z,1712.00
2022-07-29T08:07:06.281Z,1788.00
2022-07-29T08:08:06.269Z,1804.00
2022-07-29T08:09:27.804Z,2048.00
2022-07-29T08:10:06.220Z,1800.00
2022-07-29T08:11:09.405Z,1808.00
2022-07-29T08:12:06.197Z,2048.00
2022-07-29T08:13:06.215Z,1896.00
2022-07-29T08:14:06.176Z,1768.00
2022-07-29T08:15:06.144Z,1756.00
2022-07-29T08:16:06.176Z,1708.00
2022-07-29T08:17:06.130Z,1616.00
2022-07-29T08:18:08.738Z,1592.00
2022-07-29T08:19:06.965Z,1668.00
2022-07-29T08:20:06.087Z,2508.00
2022-07-29T08:21:06.075Z,1992.00
2022-07-29T08:22:06.067Z,2240.00
2022-07-29T08:23:06.078Z,3712.00
2022-07-29T08:24:07.275Z,2968.00
2022-07-29T08:25:06.024Z,2992.00
2022-07-29T08:26:06.014Z,2464.00
2022-07-29T08:27:21.308Z,2064.00
2022-07-29T08:28:06.009Z,1844.00
2022-07-29T08:29:05.989Z,1876.00
2022-07-29T08:30:06.029Z,2172.00
2022-07-29T08:31:05.953Z,1860.00
2022-07-29T08:32:05.975Z,1892.00
2022-07-29T08:33:05.941Z,2608.00
2022-07-29T08:34:05.954Z,2420.00
2022-07-29T08:35:05.900Z,2388.00
2022-07-29T08:36:05.894Z,2680.00
2022-07-29T08:37:05.878Z,3264.00
2022-07-29T08:38:05.880Z,2596.00
2022-07-29T08:39:05.890Z,2920.00
2022-07-29T08:40:05.887Z,2868.00
2022-07-29T08:41:05.821Z,2552.00
2022-07-29T08:42:05.813Z,2036.00
2022-07-29T08:43:06.519Z,2732.00
2022-07-29T08:44:05.834Z,2720.00
2022-07-29T08:45:05.820Z,2140.00
2022-07-29T08:46:05.803Z,2876.00
2022-07-29T08:47:05.747Z,2072.00
2022-07-29T08:48:05.746Z,2288.00
2022-07-29T08:49:05.837Z,2360.00
2022-07-29T08:50:05.750Z,2352.00
2022-07-29T08:51:06.483Z,1676.00
2022-07-29T08:52:05.693Z,1688.00
2022-07-29T08:53:05.679Z,2400.00
2022-07-29T08:54:05.678Z,1984.00
2022-07-29T08:55:05.680Z,1620.00
2022-07-29T08:56:05.686Z,3820.00
2022-07-29T08:57:05.627Z,2652.00
2022-07-29T08:58:05.617Z,3740.00
2022-07-29T08:59:05.625Z,920.00
2022-07-29T09:00:07.996Z,740.00
2022-07-29T09:01:06.890Z,612.00
2022-07-29T09:02:06.539Z,540.00
2022-07-29T09:03:05.559Z,512.00
2022-07-29T09:04:05.605Z,512.00
2022-07-29T09:05:05.541Z,512.00
2022-07-29T09:06:05.583Z,540.00
2022-07-29T09:07:05.543Z,596.00
2022-07-29T09:08:05.564Z,652.00
2022-07-29T09:09:05.488Z,704.00
2022-07-29T09:10:05.492Z,744.00
2022-07-29T09:11:05.831Z,772.00
2022-07-29T09:12:05.480Z,800.00
2022-07-29T09:13:05.996Z,832.00
2022-07-29T09:14:05.425Z,860.00
2022-07-29T09:15:05.434Z,888.00
2022-07-29T09:16:09.092Z,920.00
2022-07-29T09:17:05.740Z,956.00
2022-07-29T09:18:07.999Z,964.00
2022-07-29T09:19:05.370Z,968.00
2022-07-29T09:20:05.351Z,980.00
2022-07-29T09:21:05.341Z,988.00
2022-07-29T09:22:05.343Z,1036.00
2022-07-29T09:23:05.348Z,1124.00
2022-07-29T09:24:05.308Z,1600.00
2022-07-29T09:25:05.290Z,3060.00
2022-07-29T09:26:05.290Z,1832.00
2022-07-29T09:27:05.296Z,1884.00
2022-07-29T09:28:05.282Z,2424.00
2022-07-29T09:29:06.011Z,3208.00
2022-07-29T09:30:05.305Z,1564.00
2022-07-29T09:31:05.418Z,1244.00
2022-07-29T09:32:05.405Z,1192.00
2022-07-29T09:33:05.321Z,1172.00
2022-07-29T09:34:05.267Z,1396.00
2022-07-29T09:35:05.167Z,1220.00
2022-07-29T09:36:05.895Z,1256.00
2022-07-29T09:37:05.143Z,1296.00
2022-07-29T09:38:05.151Z,1372.00
2022-07-29T09:39:05.155Z,1364.00
2022-07-29T09:40:07.919Z,1364.00
2022-07-29T09:41:06.117Z,1740.00
2022-07-29T09:42:05.099Z,1944.00
2022-07-29T09:43:05.095Z,3432.00
2022-07-29T09:44:05.098Z,4148.00
2022-07-29T09:45:05.091Z,2936.00
2022-07-29T09:46:07.148Z,3096.00
2022-07-29T09:47:05.070Z,4076.00
2022-07-29T09:48:05.528Z,4240.00
2022-07-29T09:49:05.067Z,2248.00
2022-07-29T09:50:05.033Z,1496.00
2022-07-29T09:51:04.970Z,1512.00
2022-07-29T09:52:04.962Z,1168.00
2022-07-29T09:53:04.958Z,1000.00
2022-07-29T09:54:04.971Z,888.00
2022-07-29T09:55:04.958Z,808.00
2022-07-29T09:56:05.517Z,744.00
2022-07-29T09:57:04.905Z,716.00
2022-07-29T09:58:04.895Z,736.00
2022-07-29T09:59:04.880Z,796.00
2022-07-29T10:00:04.889Z,876.00
2022-07-29T10:01:04.964Z,932.00
2022-07-29T10:02:04.838Z,952.00
2022-07-29T10:03:04.848Z,964.00
2022-07-29T10:04:04.834Z,976.00
2022-07-29T10:05:04.832Z,1020.00
2022-07-29T10:06:04.820Z,1088.00
2022-07-29T10:07:05.554Z,1828.00
2022-07-29T10:08:04.801Z,1888.00
2022-07-29T10:09:04.782Z,2928.00
2022-07-29T10:10:04.755Z,2848.00
2022-07-29T10:11:04.750Z,2816.00
2022-07-29T10:12:04.725Z,1904.00
2022-07-29T10:13:08.981Z,2788.00
2022-07-29T10:14:04.703Z,2884.00
2022-07-29T10:15:04.704Z,3064.00
2022-07-29T10:16:04.731Z,2300.00
2022-07-29T10:17:04.695Z,2496.00
2022-07-29T10:18:04.708Z,1256.00
2022-07-29T10:19:04.640Z,1328.00
2022-07-29T10:20:04.638Z,2088.00
2022-07-29T10:21:04.621Z,1452.00
2022-07-29T10:22:04.991Z,1252.00
2022-07-29T10:23:04.594Z,1192.00
2022-07-29T10:24:04.646Z,1276.00
2022-07-29T10:25:04.580Z,1204.00
2022-07-29T10:26:04.566Z,1340.00
2022-07-29T10:27:04.556Z,1984.00
2022-07-29T10:28:04.575Z,1384.00
2022-07-29T10:29:04.533Z,1264.00
2022-07-29T10:30:04.512Z,1308.00
2022-07-29T10:31:04.529Z,1376.00
2022-07-29T10:32:04.511Z,1208.00
2022-07-29T10:33:04.509Z,1800.00
2022-07-29T10:34:04.529Z,884.00
2022-07-29T10:35:05.043Z,832.00
2022-07-29T10:36:04.511Z,840.00
2022-07-29T10:37:04.438Z,868.00
2022-07-29T10:38:04.430Z,880.00
2022-07-29T10:39:04.437Z,884.00
2022-07-29T10:40:04.458Z,896.00
2022-07-29T10:41:04.384Z,900.00
2022-07-29T10:42:04.375Z,896.00
2022-07-29T10:43:04.376Z,912.00
2022-07-29T10:44:04.379Z,940.00
2022-07-29T10:45:04.614Z,988.00
2022-07-29T10:46:05.107Z,1044.00
2022-07-29T10:47:04.403Z,1092.00
2022-07-29T10:48:04.306Z,1152.00
2022-07-29T10:49:04.419Z,1260.00
2022-07-29T10:50:04.310Z,1792.00
2022-07-29T10:51:04.272Z,2020.00
2022-07-29T10:52:05.951Z,1320.00
2022-07-29T10:53:08.725Z,1920.00
2022-07-29T10:54:04.252Z,2672.00
2022-07-29T10:55:04.248Z,2140.00
2022-07-29T10:56:04.743Z,1868.00
2022-07-29T10:57:05.077Z,2100.00
2022-07-29T10:58:04.185Z,2500.00
2022-07-29T10:59:04.184Z,2348.00
2022-07-29T11:00:04.169Z,1816.00
2022-07-29T11:01:04.166Z,2272.00
2022-07-29T11:02:35.500Z,2216.00
2022-07-29T11:03:04.819Z,2168.00
2022-07-29T11:04:04.129Z,2112.00
2022-07-29T11:05:04.119Z,2060.00
2022-07-29T11:06:08.706Z,2020.00
2022-07-29T11:07:04.199Z,2000.00
2022-07-29T11:08:04.069Z,1992.00
2022-07-29T11:09:04.066Z,1988.00
2022-07-29T11:10:04.056Z,1984.00
2022-07-29T11:11:04.053Z,1984.00
2022-07-29T11:12:04.171Z,1996.00
2022-07-29T11:13:04.064Z,1992.00
2022-07-29T11:14:04.565Z,2052.00
2022-07-29T11:15:03.991Z,1980.00
2022-07-29T11:16:03.991Z,1996.00
2022-07-29T11:17:06.283Z,1964.00
2022-07-29T11:18:03.988Z,2000.00
2022-07-29T11:19:03.956Z,2004.00
2022-07-29T11:20:03.940Z,2024.00
2022-07-29T11:21:03.923Z,2012.00
2022-07-29T11:22:03.928Z,2000.00
2022-07-29T11:23:03.918Z,1992.00
2022-07-29T11:24:03.927Z,1956.00
2022-07-29T11:25:04.565Z,1936.00
2022-07-29T11:26:03.871Z,1924.00
2022-07-29T11:27:04.130Z,1904.00
2022-07-29T11:28:03.862Z,1880.00
2022-07-29T11:29:03.860Z,1852.00
2022-07-29T11:30:03.859Z,1828.00
2022-07-29T11:31:04.576Z,1804.00
2022-07-29T11:32:03.802Z,1784.00
2022-07-29T11:33:03.804Z,1760.00
2022-07-29T11:34:05.678Z,1752.00
2022-07-29T11:35:03.786Z,1744.00
2022-07-29T11:36:03.759Z,1744.00
2022-07-29T11:37:04.581Z,1448.00
2022-07-29T11:38:03.738Z,1716.00
2022-07-29T11:39:03.743Z,1692.00
2022-07-29T11:40:03.734Z,1684.00
2022-07-29T11:41:03.719Z,1688.00
2022-07-29T11:42:05.191Z,1696.00
2022-07-29T11:43:07.379Z,1716.00
2022-07-29T11:44:03.703Z,1708.00
2022-07-29T11:45:04.322Z,464.00
2022-07-29T11:46:03.669Z,372.00
2022-07-29T11:47:03.656Z,1676.00
2022-07-29T11:48:28.383Z,1676.00
2022-07-29T11:49:03.680Z,1676.00
2022-07-29T11:50:03.613Z,1668.00
2022-07-29T11:51:03.703Z,1660.00
2022-07-29T11:52:03.831Z,1648.00
2022-07-29T11:53:08.872Z,1648.00
2022-07-29T11:54:05.470Z,1620.00
2022-07-29T11:55:09.834Z,1668.00
2022-07-29T11:56:03.837Z,1668.00
2022-07-29T11:57:03.543Z,1644.00
2022-07-29T11:58:04.587Z,1696.00
2022-07-29T11:59:03.550Z,552.00
2022-07-29T12:00:10.066Z,1668.00
2022-07-29T12:01:04.842Z,1712.00
2022-07-29T12:02:33.298Z,1624.00
2022-07-29T12:03:03.523Z,1068.00
2022-07-29T12:04:03.559Z,564.00
2022-07-29T12:05:10.684Z,1788.00
2022-07-29T12:06:03.445Z,1760.00
2022-07-29T12:08:03.424Z,588.00
2022-07-29T12:09:03.421Z,940.00
2022-07-29T12:10:03.417Z,924.00
2022-07-29T12:11:03.408Z,520.00
2022-07-29T12:12:06.316Z,548.00
2022-07-29T12:13:03.363Z,496.00
2022-07-29T12:14:03.351Z,1736.00
2022-07-29T12:15:03.358Z,1676.00
2022-07-29T12:16:03.385Z,1644.00
2022-07-29T12:17:03.322Z,1632.00
2022-07-29T12:18:04.081Z,1632.00
2022-07-29T12:19:03.297Z,1644.00
2022-07-29T12:20:03.302Z,1676.00
2022-07-29T12:21:03.906Z,1740.00
2022-07-29T12:22:03.686Z,1828.00
2022-07-29T12:23:03.260Z,868.00
2022-07-29T12:24:05.953Z,2000.00
2022-07-29T12:25:32.561Z,1328.00
2022-07-29T12:26:03.228Z,1980.00
2022-07-29T12:27:03.234Z,1116.00
2022-07-29T12:28:03.250Z,892.00
2022-07-29T12:29:03.306Z,1568.00